Time;durP1;ratioP1;P1;durP2;ratioP2;P2;SDS_P1;SDS_P2;PMS_P1;PMS_P2;Temp;Humidity;BMP_temperature;BMP_pressure;BME280_temperature;BME280_humidity;BME280_pressure;Samples;Min_cycle;Max_cycle;Signal;HPM_P1;HPM_P2
2022/11/23 00:01:18;;;;;;;31.65;13.80;;;8.60;99.90;;;;;;4986877;28;20030;-70
2022/11/23 00:03:46;;;;;;;34.17;13.20;;;8.60;99.90;;;;;;4991519;28;20019;-70
2022/11/23 00:06:11;;;;;;;26.08;12.85;;;8.50;99.90;;;;;;4989490;28;20494;-70
2022/11/23 00:08:37;;;;;;;26.05;12.55;;;8.50;99.90;;;;;;4991116;28;20037;-70
2022/11/23 00:11:03;;;;;;;25.83;12.38;;;8.50;99.90;;;;;;4981680;28;20541;-69
2022/11/23 00:13:29;;;;;;;23.52;11.95;;;8.60;99.90;;;;;;4981861;28;20479;-70
2022/11/23 00:15:54;;;;;;;23.10;11.75;;;8.60;99.90;;;;;;4972955;28;20489;-72
2022/11/23 00:18:20;;;;;;;30.88;12.77;;;8.60;99.90;;;;;;4972634;28;20486;-69
2022/11/23 00:20:45;;;;;;;26.02;12.50;;;8.60;99.90;;;;;;4979222;28;20030;-69
2022/11/23 00:23:11;;;;;;;32.88;12.40;;;8.70;99.90;;;;;;4983545;28;20402;-71
2022/11/23 00:25:37;;;;;;;26.52;13.02;;;8.70;99.90;;;;;;4981549;28;20031;-70
2022/11/23 00:28:02;;;;;;;25.63;13.38;;;8.70;99.90;;;;;;4985634;28;20023;-70
2022/11/23 00:30:28;;;;;;;22.90;12.95;;;8.70;99.90;;;;;;4984757;28;20401;-70
2022/11/23 00:32:54;;;;;;;32.75;13.55;;;8.80;99.90;;;;;;4979416;28;20032;-70
2022/11/23 00:35:21;;;;;;;24.90;12.80;;;8.80;99.90;;;;;;4978302;28;20027;-70
2022/11/23 00:37:46;;;;;;;25.98;12.98;;;8.80;99.90;;;;;;4984913;28;20038;-71
2022/11/23 00:40:12;;;;;;;26.23;12.73;;;8.80;99.90;;;;;;4990713;28;20027;-70
2022/11/23 00:42:37;;;;;;;25.77;13.30;;;8.80;99.90;;;;;;4990042;28;20030;-70
2022/11/23 00:45:03;;;;;;;22.65;11.80;;;8.90;99.90;;;;;;4978745;28;20066;-70
2022/11/23 00:47:29;;;;;;;27.27;12.73;;;8.80;99.90;;;;;;4986027;28;20363;-70
2022/11/23 00:49:54;;;;;;;24.98;12.02;;;8.90;99.90;;;;;;4990107;28;20027;-69
2022/11/23 00:52:20;;;;;;;25.75;13.75;;;8.90;99.90;;;;;;4978774;28;20034;-70
2022/11/23 00:54:45;;;;;;;34.70;14.02;;;8.90;99.90;;;;;;4989145;28;20021;-71
2022/11/23 00:57:11;;;;;;;29.63;14.50;;;8.90;99.90;;;;;;4980962;28;20033;-70
2022/11/23 00:59:36;;;;;;;33.03;14.48;;;8.90;99.90;;;;;;4989959;28;20030;-68
2022/11/23 01:02:02;;;;;;;32.67;13.73;;;8.90;99.90;;;;;;4984636;28;20027;-68
2022/11/23 01:04:28;;;;;;;27.23;14.05;;;8.90;99.90;;;;;;4983522;28;20023;-69
2022/11/23 01:06:55;;;;;;;26.15;13.88;;;8.90;99.90;;;;;;4976448;28;20434;-68
2022/11/23 01:09:25;;;;;;;33.05;13.40;;;8.90;99.90;;;;;;4970657;28;20499;-68
2022/11/23 01:11:51;;;;;;;29.08;13.45;;;8.90;99.90;;;;;;4980605;28;20019;-69
2022/11/23 01:14:17;;;;;;;34.10;13.68;;;8.90;99.90;;;;;;4976629;28;20031;-69
2022/11/23 01:16:42;;;;;;;31.05;14.20;;;8.90;99.90;;;;;;4974123;28;20041;-70
2022/11/23 01:19:12;;;;;;;31.33;14.45;;;8.90;99.90;;;;;;4982118;28;20092;-69
2022/11/23 01:21:38;;;;;;;29.60;13.65;;;8.90;99.90;;;;;;4984502;28;20026;-68
2022/11/23 01:24:08;;;;;;;28.02;13.23;;;8.90;99.90;;;;;;4984960;28;20360;-69
2022/11/23 01:26:34;;;;;;;30.67;12.77;;;8.90;99.90;;;;;;4980235;28;20026;-68
2022/11/23 01:29:00;;;;;;;26.38;11.70;;;8.90;99.90;;;;;;4985918;28;20395;-69
2022/11/23 01:31:26;;;;;;;26.15;11.32;;;8.90;99.90;;;;;;4990401;28;20108;-68
2022/11/23 01:33:58;;;;;;;24.00;10.30;;;8.90;99.90;;;;;;4976377;28;20021;-68
2022/11/23 01:36:29;;;;;;;27.65;10.40;;;8.90;99.90;;;;;;4987536;28;20038;-68
2022/11/23 01:38:56;;;;;;;26.58;9.98;;;8.90;99.90;;;;;;4990475;28;20118;-68
2022/11/23 01:41:24;;;;;;;27.05;9.10;;;8.90;99.90;;;;;;4993718;28;20521;-68
2022/11/23 01:43:50;;;;;;;25.20;8.43;;;8.90;99.90;;;;;;4993476;28;20034;-69
2022/11/23 01:46:16;;;;;;;20.70;7.93;;;8.90;99.90;;;;;;4991110;28;20046;-68
2022/11/23 01:48:59;;;;;;;21.60;7.63;;;8.90;99.90;;;;;;4993395;28;20066;-68
2022/11/23 01:51:28;;;;;;;19.50;6.95;;;9.00;99.90;;;;;;4993382;28;20049;-68
2022/11/23 01:53:57;;;;;;;22.58;7.10;;;9.00;99.90;;;;;;4993686;28;20022;-68
2022/11/23 01:56:31;;;;;;;19.05;6.80;;;9.00;99.90;;;;;;4992780;28;20092;-68
2022/11/23 01:59:01;;;;;;;19.83;6.60;;;9.00;99.90;;;;;;4981511;28;20081;-69
2022/11/23 02:01:26;;;;;;;19.13;6.50;;;9.00;99.90;;;;;;4977506;28;20367;-68
2022/11/23 02:03:54;;;;;;;21.42;7.38;;;9.00;99.90;;;;;;4992570;28;20026;-68
2022/11/23 02:06:21;;;;;;;18.17;7.88;;;9.00;99.90;;;;;;4993071;28;20034;-68
2022/11/23 02:08:47;;;;;;;18.73;7.93;;;8.90;99.90;;;;;;4988853;28;20109;-69
2022/11/23 02:11:15;;;;;;;26.20;8.57;;;8.90;99.90;;;;;;4984109;28;20030;-68
2022/11/23 02:13:44;;;;;;;19.30;7.78;;;8.90;99.90;;;;;;4988605;28;20019;-68
2022/11/23 02:16:10;;;;;;;20.90;8.23;;;8.90;99.90;;;;;;4988850;28;20034;-69
2022/11/23 02:18:37;;;;;;;27.92;8.90;;;8.90;99.90;;;;;;4990260;28;20049;-68
2022/11/23 02:21:04;;;;;;;19.50;8.50;;;8.90;99.90;;;;;;4989779;28;20497;-68
2022/11/23 02:23:39;;;;;;;25.60;9.70;;;8.90;99.90;;;;;;4981859;28;20042;-68
2022/11/23 02:26:13;;;;;;;22.15;9.88;;;8.80;99.90;;;;;;4985779;28;20025;-69
2022/11/23 02:28:48;;;;;;;24.77;9.03;;;8.90;99.90;;;;;;4992252;28;20491;-67
2022/11/23 02:31:14;;;;;;;23.45;9.23;;;8.80;99.90;;;;;;4973397;28;20038;-68
2022/11/23 02:33:40;;;;;;;21.77;9.73;;;8.80;99.90;;;;;;4985909;28;20030;-68
2022/11/23 02:36:34;;;;;;;23.48;9.57;;;8.70;99.90;;;;;;4990221;28;20030;-68
2022/11/23 02:39:07;;;;;;;23.30;10.10;;;8.70;99.90;;;;;;4986721;28;20031;-69
2022/11/23 02:41:38;;;;;;;22.52;10.20;;;8.60;99.90;;;;;;4992617;28;20030;-68
2022/11/23 02:44:08;;;;;;;21.02;10.60;;;8.60;99.90;;;;;;4991770;28;20310;-68
2022/11/23 02:46:33;;;;;;;23.85;11.35;;;8.60;99.90;;;;;;4990249;28;20133;-68
2022/11/23 02:48:59;;;;;;;19.40;10.43;;;8.60;99.90;;;;;;4986319;28;20423;-68
2022/11/23 02:51:24;;;;;;;26.67;11.10;;;8.60;99.90;;;;;;4986327;28;20109;-68
2022/11/23 02:53:50;;;;;;;21.38;10.90;;;8.50;99.90;;;;;;4992186;28;20475;-68
2022/11/23 02:56:15;;;;;;;23.50;12.15;;;8.60;99.90;;;;;;4992011;28;20499;-68
2022/11/23 02:58:41;;;;;;;24.58;11.90;;;8.50;99.90;;;;;;4982904;28;20073;-69
2022/11/23 03:01:06;;;;;;;25.63;11.77;;;8.50;99.90;;;;;;4987629;28;20038;-68
2022/11/23 03:03:32;;;;;;;21.50;12.00;;;8.50;99.90;;;;;;4990982;28;20022;-68
2022/11/23 03:05:58;;;;;;;21.00;11.93;;;8.50;99.90;;;;;;4991245;28;20097;-69
2022/11/23 03:08:23;;;;;;;27.13;12.35;;;8.50;99.90;;;;;;4989673;28;20589;-69
2022/11/23 03:10:49;;;;;;;21.10;12.75;;;8.50;99.90;;;;;;4991872;28;20418;-68
2022/11/23 03:13:14;;;;;;;24.92;13.20;;;8.50;99.90;;;;;;4990138;28;20157;-69
2022/11/23 03:15:40;;;;;;;26.95;13.77;;;8.50;99.90;;;;;;4985931;28;20027;-69
2022/11/23 03:18:05;;;;;;;25.38;13.80;;;8.50;99.90;;;;;;4991635;28;20096;-69
2022/11/23 03:20:31;;;;;;;27.73;13.98;;;8.50;99.90;;;;;;4987512;28;20019;-69
2022/11/23 03:22:57;;;;;;;28.67;13.93;;;8.60;99.90;;;;;;4974236;28;20550;-68
2022/11/23 03:25:22;;;;;;;26.20;13.93;;;8.60;99.90;;;;;;4989295;28;20038;-69
2022/11/23 03:27:48;;;;;;;31.35;14.60;;;8.60;99.90;;;;;;4982649;28;20038;-69
2022/11/23 03:30:14;;;;;;;23.05;13.90;;;8.70;99.90;;;;;;4979775;28;20080;-68
2022/11/23 03:32:39;;;;;;;25.48;13.35;;;8.70;99.90;;;;;;4980057;28;20038;-68
2022/11/23 03:35:06;;;;;;;23.10;13.05;;;8.70;99.90;;;;;;4991021;28;20436;-68
2022/11/23 03:37:32;;;;;;;25.60;12.80;;;8.70;99.90;;;;;;4980018;28;20026;-67
2022/11/23 03:39:58;;;;;;;21.23;12.95;;;8.70;99.90;;;;;;4991082;28;20042;-68
2022/11/23 03:42:23;;;;;;;24.92;13.18;;;8.70;99.90;;;;;;4984582;28;20025;-68
2022/11/23 03:44:49;;;;;;;24.67;13.45;;;8.80;99.90;;;;;;4981957;28;20065;-68
2022/11/23 03:47:15;;;;;;;23.95;13.25;;;8.80;99.90;;;;;;4982503;28;20058;-68
2022/11/23 03:49:40;;;;;;;24.30;13.38;;;8.70;99.90;;;;;;4988992;28;20027;-67
2022/11/23 03:52:06;;;;;;;25.42;12.82;;;8.80;99.90;;;;;;4989329;28;20037;-68
2022/11/23 03:54:32;;;;;;;20.92;12.57;;;8.80;99.90;;;;;;4991402;28;20022;-68
2022/11/23 03:56:57;;;;;;;20.33;11.38;;;8.80;99.90;;;;;;4980559;28;20526;-68
2022/11/23 03:59:23;;;;;;;22.27;11.98;;;8.80;99.90;;;;;;4990856;28;20022;-67
2022/11/23 04:01:49;;;;;;;19.10;11.65;;;8.80;99.90;;;;;;4980520;28;20449;-68
2022/11/23 04:04:14;;;;;;;18.33;11.38;;;8.80;99.90;;;;;;4984606;28;20118;-68
2022/11/23 04:06:40;;;;;;;19.20;10.50;;;8.80;99.90;;;;;;4983772;28;20037;-67
2022/11/23 04:09:05;;;;;;;18.33;9.68;;;8.80;99.90;;;;;;4986275;28;20158;-68
2022/11/23 04:11:31;;;;;;;20.70;10.52;;;8.80;99.90;;;;;;4978833;28;20105;-67
2022/11/23 04:13:56;;;;;;;15.18;9.73;;;8.90;99.90;;;;;;4990445;28;20026;-68
2022/11/23 04:16:22;;;;;;;15.65;9.63;;;8.80;99.90;;;;;;4972927;28;20037;-67
2022/11/23 04:18:47;;;;;;;19.55;9.20;;;8.90;99.90;;;;;;4986590;28;20118;-68
2022/11/23 04:21:13;;;;;;;16.58;9.20;;;8.90;99.90;;;;;;4977914;28;20057;-68
2022/11/23 04:23:38;;;;;;;18.67;9.10;;;8.90;99.90;;;;;;4987218;28;20485;-69
2022/11/23 04:26:04;;;;;;;20.00;9.77;;;8.90;99.90;;;;;;4990602;28;20022;-67
2022/11/23 04:28:30;;;;;;;39.83;22.52;;;8.90;99.90;;;;;;4990492;28;20031;-69
2022/11/23 04:30:57;;;;;;;24.48;10.35;;;9.00;99.90;;;;;;4990770;28;20093;-68
2022/11/23 04:33:23;;;;;;;22.60;10.02;;;9.00;99.90;;;;;;4990866;28;20034;-68
2022/11/23 04:35:49;;;;;;;20.65;10.38;;;9.00;99.90;;;;;;4990952;28;20106;-69
2022/11/23 04:38:14;;;;;;;23.27;10.48;;;9.00;99.90;;;;;;4990885;28;20165;-68
2022/11/23 04:40:40;;;;;;;20.55;10.50;;;9.00;99.90;;;;;;4989490;28;20034;-68
2022/11/23 04:43:06;;;;;;;23.73;10.20;;;9.00;99.90;;;;;;4985142;28;20499;-69
2022/11/23 04:45:32;;;;;;;23.52;11.55;;;9.00;99.90;;;;;;4982892;28;20061;-68
2022/11/23 04:47:57;;;;;;;20.80;11.00;;;9.00;99.90;;;;;;5005448;28;20030;-68
2022/11/23 04:50:23;;;;;;;23.15;10.48;;;9.00;99.90;;;;;;4988339;28;20030;-68
2022/11/23 04:52:48;;;;;;;18.65;9.23;;;9.00;99.90;;;;;;4988821;28;20053;-68
2022/11/23 04:55:14;;;;;;;23.88;9.43;;;9.00;99.90;;;;;;4978665;28;20022;-70
2022/11/23 04:57:39;;;;;;;19.83;8.77;;;9.00;99.90;;;;;;4990504;28;20475;-68
2022/11/23 05:00:06;;;;;;;18.67;8.35;;;9.00;99.90;;;;;;4988795;28;20034;-67
2022/11/23 05:02:31;;;;;;;19.02;8.05;;;9.00;99.90;;;;;;4990347;28;20018;-68
2022/11/23 05:04:57;;;;;;;15.50;7.72;;;9.00;99.90;;;;;;4990208;28;20025;-69
2022/11/23 05:07:22;;;;;;;19.17;7.75;;;8.90;99.90;;;;;;4990343;28;20031;-69
2022/11/23 05:09:48;;;;;;;21.67;7.10;;;8.90;99.90;;;;;;4991993;28;20553;-69
2022/11/23 05:12:13;;;;;;;19.88;7.70;;;8.90;99.90;;;;;;4994165;28;20037;-69
2022/11/23 05:14:39;;;;;;;16.60;7.10;;;8.90;99.90;;;;;;4994416;28;20056;-69
2022/11/23 05:17:04;;;;;;;19.27;7.65;;;8.90;99.90;;;;;;4993849;28;20026;-69
2022/11/23 05:19:30;;;;;;;16.65;7.50;;;8.90;99.90;;;;;;4994215;28;20031;-69
2022/11/23 05:21:55;;;;;;;21.25;7.03;;;8.90;99.90;;;;;;4993688;28;20381;-68
2022/11/23 05:24:21;;;;;;;18.20;6.72;;;8.80;99.90;;;;;;4994353;28;20113;-69
2022/11/23 05:26:47;;;;;;;18.98;7.22;;;8.90;99.90;;;;;;4993977;28;20019;-68
2022/11/23 05:29:12;;;;;;;21.13;7.53;;;8.80;99.90;;;;;;4994184;28;20454;-68
2022/11/23 05:31:38;;;;;;;20.30;7.15;;;8.80;99.90;;;;;;4989042;28;20030;-68
2022/11/23 05:34:04;;;;;;;20.33;7.03;;;8.80;99.90;;;;;;4992539;28;20022;-68
2022/11/23 05:36:29;;;;;;;23.33;6.72;;;8.80;99.90;;;;;;4993975;28;20077;-69
2022/11/23 05:38:55;;;;;;;14.93;6.63;;;8.80;99.90;;;;;;4994031;28;20435;-69
2022/11/23 05:41:21;;;;;;;18.33;6.88;;;8.70;99.90;;;;;;4974913;28;20035;-69
2022/11/23 05:43:46;;;;;;;21.00;7.28;;;8.70;99.90;;;;;;4974282;28;20023;-69
2022/11/23 05:46:12;;;;;;;24.00;7.72;;;8.60;99.90;;;;;;4990859;28;20042;-69
2022/11/23 05:48:37;;;;;;;20.00;7.75;;;8.70;99.90;;;;;;4993804;28;20042;-69
2022/11/23 05:51:03;;;;;;;23.17;7.85;;;8.60;99.90;;;;;;4992586;28;20101;-70
2022/11/23 05:53:29;;;;;;;17.67;8.07;;;8.60;99.90;;;;;;4972848;28;20022;-69
2022/11/23 05:56:01;;;;;;;20.40;7.32;;;8.60;99.90;;;;;;4985574;28;20050;-69
2022/11/23 05:58:27;;;;;;;21.52;7.63;;;8.60;99.90;;;;;;4987582;28;20046;-70
2022/11/23 06:00:57;;;;;;;27.58;8.40;;;8.60;99.90;;;;;;4985581;28;20030;-70
2022/11/23 06:03:23;;;;;;;27.58;8.35;;;8.60;99.90;;;;;;4993342;28;20076;-70
2022/11/23 06:05:48;;;;;;;20.08;7.00;;;8.60;99.90;;;;;;4993408;28;20411;-69
2022/11/23 06:08:14;;;;;;;26.77;7.65;;;8.60;99.90;;;;;;4993341;28;20050;-70
2022/11/23 06:10:39;;;;;;;31.75;7.10;;;8.50;99.90;;;;;;4993191;28;20386;-70
2022/11/23 06:13:05;;;;;;;21.25;6.47;;;8.50;99.90;;;;;;4992847;28;20334;-70
2022/11/23 06:15:31;;;;;;;17.27;5.53;;;8.50;99.90;;;;;;4987068;28;20019;-70
2022/11/23 06:18:00;;;;;;;22.80;5.70;;;8.50;99.90;;;;;;4985835;28;20033;-69
2022/11/23 06:20:27;;;;;;;20.67;5.38;;;8.40;99.90;;;;;;4980519;28;20110;-70
2022/11/23 06:22:54;;;;;;;21.08;4.65;;;8.40;99.90;;;;;;4992796;28;20031;-70
2022/11/23 06:25:20;;;;;;;20.55;3.80;;;8.30;99.90;;;;;;4993073;28;20077;-69
2022/11/23 06:28:04;;;;;;;15.38;4.05;;;8.30;99.90;;;;;;4981234;28;20026;-70
2022/11/23 06:30:30;;;;;;;28.73;3.63;;;8.20;99.90;;;;;;4979996;28;20030;-69
2022/11/23 06:32:56;;;;;;;19.30;3.78;;;8.20;99.90;;;;;;4980882;28;20097;-71
2022/11/23 06:35:23;;;;;;;22.65;3.80;;;8.20;99.90;;;;;;4984788;28;20030;-71
2022/11/23 06:37:50;;;;;;;17.27;3.28;;;8.20;99.90;;;;;;4978402;28;20044;-69
2022/11/23 06:40:16;;;;;;;14.25;3.45;;;8.10;99.90;;;;;;4992326;28;20026;-69
2022/11/23 06:42:42;;;;;;;19.13;3.65;;;8.10;99.90;;;;;;4992304;28;20022;-69
2022/11/23 06:45:08;;;;;;;26.10;3.95;;;8.10;99.90;;;;;;4992459;28;20058;-69
2022/11/23 06:47:34;;;;;;;22.30;3.28;;;8.00;99.90;;;;;;4992657;28;20038;-69
2022/11/23 06:49:59;;;;;;;20.42;3.42;;;8.00;99.90;;;;;;4992451;28;20019;-69
2022/11/23 06:52:25;;;;;;;20.70;3.30;;;8.00;99.90;;;;;;4992296;28;20502;-71
2022/11/23 06:54:50;;;;;;;23.27;4.00;;;8.00;99.90;;;;;;4992370;28;20378;-72
2022/11/23 06:57:16;;;;;;;19.23;3.67;;;8.00;99.90;;;;;;4992342;28;20030;-69
2022/11/23 06:59:44;;;;;;;18.27;3.65;;;8.00;99.90;;;;;;4990736;28;20057;-68
2022/11/23 07:02:10;;;;;;;24.77;3.65;;;8.00;99.90;;;;;;4990735;28;20033;-70
2022/11/23 07:04:35;;;;;;;19.42;3.60;;;8.00;99.90;;;;;;4991837;28;20022;-69
2022/11/23 07:07:01;;;;;;;24.48;4.13;;;8.00;99.90;;;;;;4992327;28;20022;-69
2022/11/23 07:09:27;;;;;;;15.07;2.88;;;8.00;99.90;;;;;;4991978;28;20054;-70
2022/11/23 07:11:53;;;;;;;20.38;3.20;;;8.00;99.90;;;;;;4992121;28;20624;-69
2022/11/23 07:14:18;;;;;;;21.27;3.40;;;8.10;99.90;;;;;;4991148;28;20057;-71
2022/11/23 07:16:44;;;;;;;23.45;3.25;;;8.10;99.90;;;;;;4981183;28;20030;-70
2022/11/23 07:19:10;;;;;;;17.77;3.67;;;8.10;99.90;;;;;;4986014;28;20406;-69
2022/11/23 07:21:35;;;;;;;20.02;3.25;;;8.10;99.90;;;;;;4984171;28;20053;-71
2022/11/23 07:24:01;;;;;;;23.80;3.38;;;8.20;99.90;;;;;;4983590;28;20030;-73
2022/11/23 07:26:26;;;;;;;16.30;2.90;;;8.20;99.90;;;;;;4982167;28;20061;-69
2022/11/23 07:28:52;;;;;;;18.33;3.40;;;8.20;99.90;;;;;;4988112;28;20526;-70
2022/11/23 07:31:17;;;;;;;17.80;3.30;;;8.20;99.90;;;;;;4985160;28;20054;-69
2022/11/23 07:33:46;;;;;;;21.52;3.20;;;8.20;99.90;;;;;;4987139;28;20030;-70
2022/11/23 07:36:13;;;;;;;21.25;3.38;;;8.20;99.90;;;;;;4987946;28;20048;-69
2022/11/23 07:38:38;;;;;;;19.63;3.35;;;8.20;99.90;;;;;;4990347;28;20045;-71
2022/11/23 07:41:04;;;;;;;30.25;3.38;;;8.30;99.90;;;;;;4986467;28;20105;-69
2022/11/23 07:43:30;;;;;;;24.75;3.28;;;8.30;99.90;;;;;;4989837;28;20022;-70
2022/11/23 07:45:58;;;;;;;18.15;3.40;;;8.30;99.90;;;;;;4990172;28;20047;-70
2022/11/23 07:48:24;;;;;;;27.13;3.70;;;8.40;99.90;;;;;;4988557;28;20506;-70
2022/11/23 07:50:53;;;;;;;18.50;3.20;;;8.40;99.90;;;;;;4989131;28;20022;-70
2022/11/23 07:53:19;;;;;;;23.88;3.50;;;8.40;99.90;;;;;;4988193;28;20427;-71
2022/11/23 07:55:45;;;;;;;17.35;3.17;;;8.40;99.90;;;;;;4987154;28;20101;-71
2022/11/23 07:58:11;;;;;;;21.13;3.10;;;8.40;99.90;;;;;;4988167;28;20122;-72
2022/11/23 08:00:37;;;;;;;20.27;3.25;;;8.40;99.90;;;;;;4989216;28;20030;-68
2022/11/23 08:03:03;;;;;;;15.73;2.83;;;8.50;99.90;;;;;;4981797;28;20525;-70
2022/11/23 08:05:33;;;;;;;23.08;3.75;;;8.50;99.90;;;;;;4988896;28;20034;-71
2022/11/23 08:08:00;;;;;;;19.23;3.28;;;8.40;99.90;;;;;;4988813;28;20073;-70
2022/11/23 08:10:30;;;;;;;17.92;3.40;;;8.50;99.90;;;;;;4989810;28;20025;-69
2022/11/23 08:12:57;;;;;;;20.85;3.22;;;8.40;99.90;;;;;;4988449;28;20069;-70
2022/11/23 08:15:24;;;;;;;16.65;3.10;;;8.40;99.90;;;;;;4989913;28;20030;-71
2022/11/23 08:18:00;;;;;;;21.92;2.88;;;8.40;99.90;;;;;;4990203;28;20359;-73
2022/11/23 08:20:27;;;;;;;20.88;2.95;;;8.40;99.90;;;;;;4988042;28;20038;-71
2022/11/23 08:22:55;;;;;;;13.20;2.92;;;8.40;99.90;;;;;;4989938;28;20446;-71
2022/11/23 08:25:26;;;;;;;16.67;3.38;;;8.50;99.90;;;;;;4990769;28;20033;-70
2022/11/23 08:28:03;;;;;;;21.20;3.05;;;8.50;99.90;;;;;;4989995;28;20030;-70
2022/11/23 08:30:30;;;;;;;20.60;2.92;;;8.50;99.90;;;;;;4983034;28;20026;-69
2022/11/23 08:32:56;;;;;;;18.80;3.22;;;8.50;99.90;;;;;;4994454;28;20026;-70
2022/11/23 08:35:21;;;;;;;20.60;3.47;;;8.50;99.90;;;;;;4990577;28;20021;-70
2022/11/23 08:37:47;;;;;;;20.48;3.17;;;8.50;99.90;;;;;;4989985;28;20518;-70
2022/11/23 08:40:14;;;;;;;13.13;2.80;;;8.50;99.90;;;;;;4989803;28;20058;-71
2022/11/23 08:42:39;;;;;;;20.83;3.58;;;8.50;99.90;;;;;;4990606;28;20038;-71
2022/11/23 08:45:05;;;;;;;23.73;3.70;;;8.60;99.90;;;;;;4987678;28;20224;-71
2022/11/23 08:47:32;;;;;;;20.13;3.70;;;8.60;99.90;;;;;;4992853;28;20030;-70
2022/11/23 08:49:58;;;;;;;18.45;3.28;;;8.60;99.90;;;;;;4993987;28;20105;-71
2022/11/23 08:52:24;;;;;;;16.15;3.05;;;8.70;99.90;;;;;;4992989;28;20415;-71
2022/11/23 08:54:50;;;;;;;21.40;3.78;;;8.70;99.90;;;;;;4993677;28;20638;-70
2022/11/23 08:57:16;;;;;;;21.95;4.25;;;8.80;99.90;;;;;;4994788;28;20101;-69
2022/11/23 08:59:42;;;;;;;16.52;2.95;;;8.80;99.90;;;;;;4994277;28;20027;-71
2022/11/23 09:02:11;;;;;;;21.83;3.53;;;8.90;99.90;;;;;;4994144;28;20030;-74
2022/11/23 09:04:38;;;;;;;18.45;3.35;;;8.90;99.90;;;;;;4994124;28;20058;-72
2022/11/23 09:07:03;;;;;;;19.58;3.42;;;9.00;99.90;;;;;;4989941;28;20018;-71
2022/11/23 09:09:29;;;;;;;17.27;3.28;;;9.00;99.90;;;;;;4992957;28;20549;-71
2022/11/23 09:11:55;;;;;;;20.73;3.47;;;9.00;99.90;;;;;;4993751;28;20423;-71
2022/11/23 09:14:21;;;;;;;19.83;3.17;;;9.00;99.90;;;;;;4977942;28;20050;-71
2022/11/23 09:16:46;;;;;;;17.60;3.55;;;9.00;99.90;;;;;;4983240;28;20022;-71
2022/11/23 09:19:13;;;;;;;18.20;3.58;;;9.00;99.90;;;;;;4994508;28;20034;-71
2022/11/23 09:21:38;;;;;;;20.98;3.55;;;9.00;99.90;;;;;;4992992;28;20026;-71
2022/11/23 09:24:04;;;;;;;18.42;3.40;;;9.00;99.90;;;;;;4999467;28;20062;-72
2022/11/23 09:26:32;;;;;;;22.67;4.13;;;9.10;99.90;;;;;;4987487;28;20093;-71
2022/11/23 09:28:58;;;;;;;12.63;2.97;;;9.10;99.90;;;;;;4991112;28;20080;-71
2022/11/23 09:31:25;;;;;;;17.95;3.70;;;9.10;99.90;;;;;;4993958;28;20109;-71
2022/11/23 09:33:52;;;;;;;21.55;3.92;;;9.10;99.90;;;;;;4992968;28;20014;-71
2022/11/23 09:36:18;;;;;;;14.68;3.40;;;9.10;99.90;;;;;;4990235;28;20336;-71
2022/11/23 09:38:43;;;;;;;17.70;3.08;;;9.10;99.90;;;;;;4991939;28;20041;-71
2022/11/23 09:41:20;;;;;;;18.73;3.30;;;9.10;99.90;;;;;;4993049;28;20450;-71
2022/11/23 09:43:51;;;;;;;13.82;3.05;;;9.10;99.90;;;;;;4993408;28;20061;-69
2022/11/23 09:46:54;;;;;;;20.42;3.28;;;9.10;99.90;;;;;;4993515;28;20104;-68
2022/11/23 09:49:23;;;;;;;19.98;2.72;;;9.10;99.90;;;;;;4993480;28;20026;-69
2022/11/23 09:51:53;;;;;;;21.00;4.18;;;9.10;99.90;;;;;;4986324;28;20027;-68
2022/11/23 09:54:33;;;;;;;17.80;3.15;;;9.10;99.90;;;;;;4989499;28;20097;-68
2022/11/23 09:56:59;;;;;;;19.10;3.50;;;9.20;99.90;;;;;;4992122;28;20038;-69
2022/11/23 09:59:43;;;;;;;16.30;3.35;;;9.10;99.90;;;;;;4993416;28;20399;-71
2022/11/23 10:02:30;;;;;;;22.83;3.40;;;9.10;99.90;;;;;;4992161;28;20041;-72
2022/11/23 10:04:59;;;;;;;15.18;3.50;;;9.10;99.90;;;;;;4989136;28;20356;-69
2022/11/23 10:07:42;;;;;;;16.67;3.97;;;9.10;99.90;;;;;;4992482;28;20030;-69
2022/11/23 10:10:40;;;;;;;16.70;4.03;;;9.00;99.90;;;;;;4993021;28;20033;-69
2022/11/23 10:13:06;;;;;;;18.42;4.55;;;9.00;99.90;;;;;;4980960;28;20199;-69
2022/11/23 10:15:50;;;;;;;18.30;3.83;;;8.90;99.90;;;;;;4994390;28;20033;-70
2022/11/23 10:18:54;;;;;;;19.05;4.90;;;8.90;99.90;;;;;;4992783;28;20096;-71
2022/11/23 10:21:53;;;;;;;22.30;4.88;;;8.80;99.90;;;;;;4992362;28;20474;-71
2022/11/23 10:24:24;;;;;;;21.52;4.85;;;8.80;99.90;;;;;;4992941;28;20028;-69
2022/11/23 10:26:50;;;;;;;22.85;5.00;;;8.80;99.90;;;;;;4993015;28;20014;-69
2022/11/23 10:29:31;;;;;;;24.17;5.03;;;8.70;99.90;;;;;;4992505;28;20030;-67
2022/11/23 10:31:58;;;;;;;17.63;4.50;;;8.70;99.90;;;;;;4991672;28;20356;-69
2022/11/23 10:34:44;;;;;;;14.43;4.53;;;8.70;99.90;;;;;;4991417;28;20018;-68
2022/11/23 10:37:14;;;;;;;18.92;5.25;;;8.70;99.90;;;;;;4961157;28;20368;-69
2022/11/23 10:39:40;;;;;;;19.85;5.78;;;8.70;99.90;;;;;;4991364;28;20026;-69
2022/11/23 10:42:37;;;;;;;26.42;5.13;;;8.70;99.90;;;;;;4990114;28;20026;-68
2022/11/23 10:45:04;;;;;;;21.20;5.15;;;8.60;99.90;;;;;;4990438;28;20092;-73
2022/11/23 10:47:50;;;;;;;23.98;5.20;;;8.60;99.90;;;;;;4989937;28;20030;-71
2022/11/23 10:50:36;;;;;;;20.15;5.15;;;8.70;99.90;;;;;;4990993;28;20049;-72
2022/11/23 10:53:04;;;;;;;21.83;5.90;;;8.70;99.90;;;;;;4981713;28;20046;-73
2022/11/23 10:55:32;;;;;;;23.25;6.47;;;8.70;99.90;;;;;;4990944;28;20057;-71
2022/11/23 10:57:59;;;;;;;16.45;6.13;;;8.70;99.90;;;;;;4990781;28;20487;-71
2022/11/23 11:00:27;;;;;;;16.23;6.93;;;8.70;99.90;;;;;;4991996;28;20475;-68
2022/11/23 11:02:55;;;;;;;17.17;6.82;;;8.80;99.90;;;;;;4991571;28;20403;-69
2022/11/23 11:05:24;;;;;;;19.25;6.63;;;8.80;99.90;;;;;;4992374;28;20026;-70
2022/11/23 11:07:51;;;;;;;20.30;5.72;;;8.90;99.90;;;;;;4991085;28;20394;-70
2022/11/23 11:10:50;;;;;;;20.95;5.57;;;8.90;99.90;;;;;;4991592;28;20364;-70
2022/11/23 11:13:23;;;;;;;18.80;4.70;;;9.00;99.90;;;;;;4976739;28;20038;-69
2022/11/23 11:15:54;;;;;;;17.08;4.50;;;9.00;99.90;;;;;;4991851;28;20473;-69
2022/11/23 11:18:20;;;;;;;18.50;4.80;;;9.00;99.90;;;;;;4991018;28;20042;-70
2022/11/23 11:20:46;;;;;;;17.30;4.18;;;9.10;99.90;;;;;;4992355;28;20079;-70
2022/11/23 11:23:19;;;;;;;19.80;4.60;;;9.10;99.90;;;;;;4989683;28;20026;-71
2022/11/23 11:25:46;;;;;;;13.48;3.88;;;9.20;99.90;;;;;;4987222;28;20505;-71
2022/11/23 11:28:36;;;;;;;17.05;3.78;;;9.20;99.90;;;;;;4990162;28;20030;-70
2022/11/23 11:31:23;;;;;;;15.02;3.70;;;9.20;99.90;;;;;;4982950;28;20026;-70
2022/11/23 11:34:19;;;;;;;14.18;3.58;;;9.30;99.90;;;;;;4991377;28;20026;-71
2022/11/23 11:37:08;;;;;;;15.93;3.60;;;9.30;99.90;;;;;;4988430;28;20031;-70
2022/11/23 11:40:02;;;;;;;16.38;4.13;;;9.30;99.90;;;;;;4991091;28;20124;-70
2022/11/23 11:42:39;;;;;;;12.48;3.40;;;9.30;99.90;;;;;;4985355;28;20046;-70
2022/11/23 11:45:14;;;;;;;17.70;3.47;;;9.40;99.90;;;;;;4991033;28;20568;-70
2022/11/23 11:47:46;;;;;;;15.07;3.25;;;9.40;99.90;;;;;;4991391;28;20138;-72
2022/11/23 11:50:25;;;;;;;14.35;3.28;;;9.40;99.90;;;;;;4990831;28;20030;-72
2022/11/23 11:52:55;;;;;;;13.25;3.47;;;9.50;99.90;;;;;;4990904;28;20022;-70
2022/11/23 11:55:28;;;;;;;20.05;3.50;;;9.50;99.90;;;;;;4990626;28;20037;-70
2022/11/23 11:58:04;;;;;;;14.70;3.40;;;9.50;99.90;;;;;;4990849;28;20457;-71
2022/11/23 12:00:32;;;;;;;;;;;9.60;99.90;;;;;;4990524;28;20104;-69
2022/11/23 12:03:18;;;;;;;15.75;3.47;;;9.60;99.90;;;;;;4991534;28;20254;-69
2022/11/23 12:05:47;;;;;;;17.95;3.75;;;9.50;99.90;;;;;;4987972;28;20058;-69
2022/11/23 12:08:29;;;;;;;14.77;3.50;;;9.50;99.90;;;;;;4990061;28;20022;-69
2022/11/23 12:10:58;;;;;;;14.82;3.70;;;9.60;99.90;;;;;;4989919;28;20045;-69
2022/11/23 12:13:31;;;;;;;12.40;3.65;;;9.60;99.90;;;;;;4991061;28;20032;-69
2022/11/23 12:16:25;;;;;;;18.30;3.85;;;9.60;99.90;;;;;;4990418;28;20105;-69
2022/11/23 12:19:02;;;;;;;17.55;3.53;;;9.60;99.90;;;;;;4979423;28;20058;-69
2022/11/23 12:21:58;;;;;;;16.42;3.63;;;9.70;99.90;;;;;;4991090;28;20036;-69
2022/11/23 12:24:42;;;;;;;17.73;3.22;;;9.70;99.90;;;;;;4983701;28;20446;-69
2022/11/23 12:27:26;;;;;;;10.75;2.95;;;9.70;99.90;;;;;;4978248;28;20031;-70
2022/11/23 12:30:15;;;;;;;11.55;2.88;;;9.70;99.90;;;;;;4990840;28;20049;-71
2022/11/23 12:32:55;;;;;;;12.35;2.53;;;9.80;99.90;;;;;;4990598;28;20129;-70
2022/11/23 12:35:39;;;;;;;15.27;3.10;;;9.80;99.90;;;;;;4989290;28;20023;-70
2022/11/23 12:38:30;;;;;;;9.07;2.60;;;9.80;99.90;;;;;;4990442;28;20117;-70
2022/11/23 12:41:26;;;;;;;15.23;2.90;;;9.80;99.90;;;;;;4979390;28;20042;-70
2022/11/23 12:44:04;;;;;;;12.23;2.80;;;9.80;99.90;;;;;;4990829;28;20025;-70
2022/11/23 12:46:44;;;;;;;14.73;2.85;;;9.80;99.90;;;;;;4987029;28;20050;-70
2022/11/23 12:49:39;;;;;;;14.05;2.50;;;9.80;99.90;;;;;;4979073;28;20119;-71
2022/11/23 12:52:23;;;;;;;12.25;3.17;;;9.80;99.90;;;;;;4987075;28;20073;-71
2022/11/23 12:55:14;;;;;;;14.98;3.17;;;9.80;99.90;;;;;;4990725;28;20026;-70
2022/11/23 12:57:47;;;;;;;20.17;2.50;;;9.70;99.90;;;;;;4988784;28;20044;-71